sensor_id;sensor_type;location;lat;lon;timestamp;P1;durP1;ratioP1;P2;durP2;ratioP2
80653;SDS011;70020;45.524;10.240;2023-12-28T00:02:02;34.85;;;22.35;;
80653;SDS011;70020;45.524;10.240;2023-12-28T00:06:53;36.58;;;22.38;;
80653;SDS011;70020;45.524;10.240;2023-12-28T00:09:20;32.20;;;22.63;;
80653;SDS011;70020;45.524;10.240;2023-12-28T00:11:46;33.08;;;22.05;;
80653;SDS011;70020;45.524;10.240;2023-12-28T00:14:12;34.80;;;22.77;;
80653;SDS011;70020;45.524;10.240;2023-12-28T00:16:38;34.88;;;23.30;;
80653;SDS011;70020;45.524;10.240;2023-12-28T00:19:04;35.37;;;22.77;;
80653;SDS011;70020;45.524;10.240;2023-12-28T00:21:30;31.50;;;21.77;;
80653;SDS011;70020;45.524;10.240;2023-12-28T00:23:55;32.67;;;24.10;;
80653;SDS011;70020;45.524;10.240;2023-12-28T00:26:22;37.45;;;24.40;;
80653;SDS011;70020;45.524;10.240;2023-12-28T00:28:51;39.35;;;24.92;;
80653;SDS011;70020;45.524;10.240;2023-12-28T00:31:17;34.03;;;24.63;;
80653;SDS011;70020;45.524;10.240;2023-12-28T00:33:43;38.33;;;23.20;;
80653;SDS011;70020;45.524;10.240;2023-12-28T00:36:09;34.95;;;23.00;;
80653;SDS011;70020;45.524;10.240;2023-12-28T00:38:35;34.83;;;23.00;;
80653;SDS011;70020;45.524;10.240;2023-12-28T00:41:01;35.75;;;24.67;;
80653;SDS011;70020;45.524;10.240;2023-12-28T00:43:27;39.85;;;25.50;;
80653;SDS011;70020;45.524;10.240;2023-12-28T00:45:53;35.60;;;25.00;;
80653;SDS011;70020;45.524;10.240;2023-12-28T00:48:19;38.13;;;25.08;;
80653;SDS011;70020;45.524;10.240;2023-12-28T00:50:46;41.97;;;27.38;;
80653;SDS011;70020;45.524;10.240;2023-12-28T00:53:12;40.58;;;26.83;;
80653;SDS011;70020;45.524;10.240;2023-12-28T00:55:38;43.08;;;27.83;;
80653;SDS011;70020;45.524;10.240;2023-12-28T00:58:04;42.00;;;27.98;;
80653;SDS011;70020;45.524;10.240;2023-12-28T01:00:31;40.58;;;27.30;;
80653;SDS011;70020;45.524;10.240;2023-12-28T01:02:57;42.17;;;27.00;;
80653;SDS011;70020;45.524;10.240;2023-12-28T01:05:23;43.67;;;28.33;;
80653;SDS011;70020;45.524;10.240;2023-12-28T01:07:51;42.47;;;27.17;;
80653;SDS011;70020;45.524;10.240;2023-12-28T01:10:17;41.58;;;28.17;;
80653;SDS011;70020;45.524;10.240;2023-12-28T01:12:43;41.50;;;28.05;;
80653;SDS011;70020;45.524;10.240;2023-12-28T01:17:35;39.22;;;26.80;;
80653;SDS011;70020;45.524;10.240;2023-12-28T01:20:03;39.58;;;27.98;;
80653;SDS011;70020;45.524;10.240;2023-12-28T01:22:31;40.78;;;27.55;;
80653;SDS011;70020;45.524;10.240;2023-12-28T01:24:57;42.08;;;27.67;;
80653;SDS011;70020;45.524;10.240;2023-12-28T01:27:23;42.35;;;28.38;;
80653;SDS011;70020;45.524;10.240;2023-12-28T01:29:49;37.70;;;27.73;;
80653;SDS011;70020;45.524;10.240;2023-12-28T01:32:16;46.08;;;27.52;;
80653;SDS011;70020;45.524;10.240;2023-12-28T01:34:41;38.53;;;27.00;;
80653;SDS011;70020;45.524;10.240;2023-12-28T01:37:08;41.55;;;26.45;;
80653;SDS011;70020;45.524;10.240;2023-12-28T01:39:34;38.80;;;27.48;;
80653;SDS011;70020;45.524;10.240;2023-12-28T01:42:00;39.90;;;25.17;;
80653;SDS011;70020;45.524;10.240;2023-12-28T01:44:27;37.35;;;24.88;;
80653;SDS011;70020;45.524;10.240;2023-12-28T01:46:55;35.67;;;23.67;;
80653;SDS011;70020;45.524;10.240;2023-12-28T01:49:22;33.42;;;23.50;;
80653;SDS011;70020;45.524;10.240;2023-12-28T01:51:49;31.08;;;23.27;;
80653;SDS011;70020;45.524;10.240;2023-12-28T01:54:15;33.92;;;23.83;;
80653;SDS011;70020;45.524;10.240;2023-12-28T01:56:42;40.70;;;24.02;;
80653;SDS011;70020;45.524;10.240;2023-12-28T01:59:09;36.17;;;24.00;;
80653;SDS011;70020;45.524;10.240;2023-12-28T02:01:36;35.83;;;23.50;;
80653;SDS011;70020;45.524;10.240;2023-12-28T02:04:01;32.97;;;21.83;;
80653;SDS011;70020;45.524;10.240;2023-12-28T02:06:28;34.22;;;22.55;;
80653;SDS011;70020;45.524;10.240;2023-12-28T02:08:54;33.75;;;23.83;;
80653;SDS011;70020;45.524;10.240;2023-12-28T02:11:20;42.03;;;24.17;;
80653;SDS011;70020;45.524;10.240;2023-12-28T02:13:46;36.17;;;23.37;;
80653;SDS011;70020;45.524;10.240;2023-12-28T02:16:23;38.63;;;22.47;;
80653;SDS011;70020;45.524;10.240;2023-12-28T02:18:53;35.95;;;23.58;;
80653;SDS011;70020;45.524;10.240;2023-12-28T02:21:22;32.25;;;22.83;;
80653;SDS011;70020;45.524;10.240;2023-12-28T02:23:49;38.45;;;23.90;;
80653;SDS011;70020;45.524;10.240;2023-12-28T02:26:16;33.30;;;23.65;;
80653;SDS011;70020;45.524;10.240;2023-12-28T02:28:42;42.67;;;23.73;;
80653;SDS011;70020;45.524;10.240;2023-12-28T02:31:14;38.90;;;24.80;;
80653;SDS011;70020;45.524;10.240;2023-12-28T02:33:50;37.17;;;23.55;;
80653;SDS011;70020;45.524;10.240;2023-12-28T02:36:23;31.80;;;23.17;;
80653;SDS011;70020;45.524;10.240;2023-12-28T02:38:52;34.50;;;23.83;;
80653;SDS011;70020;45.524;10.240;2023-12-28T02:41:21;35.05;;;24.08;;
80653;SDS011;70020;45.524;10.240;2023-12-28T02:43:48;34.28;;;23.67;;
80653;SDS011;70020;45.524;10.240;2023-12-28T02:46:14;32.08;;;22.70;;
80653;SDS011;70020;45.524;10.240;2023-12-28T02:48:40;30.75;;;22.55;;
80653;SDS011;70020;45.524;10.240;2023-12-28T02:51:06;31.23;;;23.53;;
80653;SDS011;70020;45.524;10.240;2023-12-28T02:53:32;33.03;;;23.08;;
80653;SDS011;70020;45.524;10.240;2023-12-28T02:55:59;33.97;;;23.77;;
80653;SDS011;70020;45.524;10.240;2023-12-28T02:58:25;35.58;;;24.50;;
80653;SDS011;70020;45.524;10.240;2023-12-28T03:00:51;39.67;;;26.02;;
80653;SDS011;70020;45.524;10.240;2023-12-28T03:03:17;38.25;;;25.50;;
80653;SDS011;70020;45.524;10.240;2023-12-28T03:05:44;38.47;;;25.27;;
80653;SDS011;70020;45.524;10.240;2023-12-28T03:08:09;40.97;;;26.65;;
80653;SDS011;70020;45.524;10.240;2023-12-28T03:10:36;40.17;;;27.88;;
80653;SDS011;70020;45.524;10.240;2023-12-28T03:13:02;42.80;;;28.40;;
80653;SDS011;70020;45.524;10.240;2023-12-28T03:15:29;42.63;;;27.48;;
80653;SDS011;70020;45.524;10.240;2023-12-28T03:17:56;38.40;;;27.77;;
80653;SDS011;70020;45.524;10.240;2023-12-28T03:20:22;40.97;;;27.45;;
80653;SDS011;70020;45.524;10.240;2023-12-28T03:22:48;41.50;;;27.40;;
80653;SDS011;70020;45.524;10.240;2023-12-28T03:25:14;43.55;;;27.15;;
80653;SDS011;70020;45.524;10.240;2023-12-28T03:27:40;43.47;;;27.50;;
80653;SDS011;70020;45.524;10.240;2023-12-28T03:30:06;41.05;;;26.20;;
80653;SDS011;70020;45.524;10.240;2023-12-28T03:34:58;44.88;;;26.88;;
80653;SDS011;70020;45.524;10.240;2023-12-28T03:37:25;38.67;;;27.35;;
80653;SDS011;70020;45.524;10.240;2023-12-28T03:39:50;45.15;;;27.88;;
80653;SDS011;70020;45.524;10.240;2023-12-28T03:42:17;47.83;;;28.02;;
80653;SDS011;70020;45.524;10.240;2023-12-28T03:44:42;47.37;;;26.60;;
80653;SDS011;70020;45.524;10.240;2023-12-28T03:47:08;41.43;;;28.53;;
80653;SDS011;70020;45.524;10.240;2023-12-28T03:49:34;45.13;;;28.45;;
80653;SDS011;70020;45.524;10.240;2023-12-28T03:52:00;44.50;;;27.63;;
80653;SDS011;70020;45.524;10.240;2023-12-28T03:54:26;40.55;;;26.92;;
80653;SDS011;70020;45.524;10.240;2023-12-28T03:56:52;43.67;;;28.37;;
80653;SDS011;70020;45.524;10.240;2023-12-28T03:59:19;40.22;;;26.63;;
80653;SDS011;70020;45.524;10.240;2023-12-28T04:01:48;40.53;;;27.15;;
80653;SDS011;70020;45.524;10.240;2023-12-28T04:04:14;40.00;;;27.00;;
80653;SDS011;70020;45.524;10.240;2023-12-28T04:06:40;42.15;;;28.98;;
80653;SDS011;70020;45.524;10.240;2023-12-28T04:09:08;38.97;;;27.27;;
80653;SDS011;70020;45.524;10.240;2023-12-28T04:11:34;41.67;;;27.33;;
80653;SDS011;70020;45.524;10.240;2023-12-28T04:14:00;41.40;;;27.92;;
80653;SDS011;70020;45.524;10.240;2023-12-28T04:16:25;39.60;;;26.43;;
80653;SDS011;70020;45.524;10.240;2023-12-28T04:18:51;41.80;;;27.43;;
80653;SDS011;70020;45.524;10.240;2023-12-28T04:21:17;42.67;;;27.75;;
80653;SDS011;70020;45.524;10.240;2023-12-28T04:23:42;37.33;;;26.10;;
80653;SDS011;70020;45.524;10.240;2023-12-28T04:26:09;45.78;;;28.42;;
80653;SDS011;70020;45.524;10.240;2023-12-28T04:28:35;40.93;;;27.10;;
80653;SDS011;70020;45.524;10.240;2023-12-28T04:31:04;41.92;;;28.00;;
80653;SDS011;70020;45.524;10.240;2023-12-28T04:33:31;46.20;;;28.38;;
80653;SDS011;70020;45.524;10.240;2023-12-28T04:35:57;43.15;;;28.83;;
80653;SDS011;70020;45.524;10.240;2023-12-28T04:38:25;40.90;;;26.83;;
80653;SDS011;70020;45.524;10.240;2023-12-28T04:40:52;42.15;;;27.60;;
80653;SDS011;70020;45.524;10.240;2023-12-28T04:43:18;41.22;;;27.13;;
80653;SDS011;70020;45.524;10.240;2023-12-28T04:45:44;40.85;;;27.05;;
80653;SDS011;70020;45.524;10.240;2023-12-28T04:48:10;39.07;;;27.90;;
80653;SDS011;70020;45.524;10.240;2023-12-28T04:50:36;41.72;;;27.67;;
80653;SDS011;70020;45.524;10.240;2023-12-28T04:53:02;43.92;;;28.23;;
80653;SDS011;70020;45.524;10.240;2023-12-28T04:57:54;43.28;;;27.08;;
80653;SDS011;70020;45.524;10.240;2023-12-28T05:00:21;44.20;;;28.77;;
80653;SDS011;70020;45.524;10.240;2023-12-28T05:02:47;41.13;;;27.70;;
80653;SDS011;70020;45.524;10.240;2023-12-28T05:05:12;40.17;;;29.20;;
80653;SDS011;70020;45.524;10.240;2023-12-28T05:07:38;46.17;;;29.00;;
80653;SDS011;70020;45.524;10.240;2023-12-28T05:10:04;50.95;;;30.20;;
80653;SDS011;70020;45.524;10.240;2023-12-28T05:12:31;43.92;;;30.30;;
80653;SDS011;70020;45.524;10.240;2023-12-28T05:14:57;46.13;;;29.80;;
80653;SDS011;70020;45.524;10.240;2023-12-28T05:17:23;47.10;;;31.10;;
80653;SDS011;70020;45.524;10.240;2023-12-28T05:19:49;50.13;;;30.33;;
80653;SDS011;70020;45.524;10.240;2023-12-28T05:22:15;49.40;;;30.70;;
80653;SDS011;70020;45.524;10.240;2023-12-28T05:24:41;45.17;;;30.27;;
80653;SDS011;70020;45.524;10.240;2023-12-28T05:27:07;44.72;;;29.83;;
80653;SDS011;70020;45.524;10.240;2023-12-28T05:29:33;47.40;;;31.15;;
80653;SDS011;70020;45.524;10.240;2023-12-28T05:31:59;48.27;;;31.07;;
80653;SDS011;70020;45.524;10.240;2023-12-28T05:34:24;45.47;;;30.57;;
80653;SDS011;70020;45.524;10.240;2023-12-28T05:36:50;48.72;;;29.50;;
80653;SDS011;70020;45.524;10.240;2023-12-28T05:39:16;48.88;;;30.88;;
80653;SDS011;70020;45.524;10.240;2023-12-28T05:41:43;44.60;;;29.15;;
80653;SDS011;70020;45.524;10.240;2023-12-28T05:46:35;46.38;;;29.85;;
80653;SDS011;70020;45.524;10.240;2023-12-28T05:49:01;46.03;;;30.58;;
80653;SDS011;70020;45.524;10.240;2023-12-28T05:51:27;48.15;;;29.67;;
80653;SDS011;70020;45.524;10.240;2023-12-28T05:53:54;49.45;;;29.77;;
80653;SDS011;70020;45.524;10.240;2023-12-28T05:56:20;42.83;;;28.25;;
80653;SDS011;70020;45.524;10.240;2023-12-28T06:01:12;45.22;;;29.35;;
80653;SDS011;70020;45.524;10.240;2023-12-28T06:06:05;42.10;;;28.48;;
80653;SDS011;70020;45.524;10.240;2023-12-28T06:08:31;44.33;;;28.50;;
80653;SDS011;70020;45.524;10.240;2023-12-28T06:10:56;49.67;;;29.20;;
80653;SDS011;70020;45.524;10.240;2023-12-28T06:13:23;42.47;;;29.70;;
80653;SDS011;70020;45.524;10.240;2023-12-28T06:15:49;42.28;;;27.95;;
80653;SDS011;70020;45.524;10.240;2023-12-28T06:18:15;42.42;;;28.63;;
80653;SDS011;70020;45.524;10.240;2023-12-28T06:20:42;40.63;;;28.10;;
80653;SDS011;70020;45.524;10.240;2023-12-28T06:23:08;42.45;;;28.50;;
80653;SDS011;70020;45.524;10.240;2023-12-28T06:25:34;41.80;;;28.35;;
80653;SDS011;70020;45.524;10.240;2023-12-28T06:28:01;44.30;;;28.02;;
80653;SDS011;70020;45.524;10.240;2023-12-28T06:30:26;43.30;;;27.67;;
80653;SDS011;70020;45.524;10.240;2023-12-28T06:32:53;45.55;;;27.92;;
80653;SDS011;70020;45.524;10.240;2023-12-28T06:35:19;35.47;;;26.55;;
80653;SDS011;70020;45.524;10.240;2023-12-28T06:37:45;36.65;;;26.63;;
80653;SDS011;70020;45.524;10.240;2023-12-28T06:40:12;39.80;;;26.77;;
80653;SDS011;70020;45.524;10.240;2023-12-28T06:42:38;41.67;;;26.98;;
80653;SDS011;70020;45.524;10.240;2023-12-28T06:45:04;39.97;;;25.77;;
80653;SDS011;70020;45.524;10.240;2023-12-28T06:47:30;38.67;;;24.67;;
80653;SDS011;70020;45.524;10.240;2023-12-28T06:49:56;37.00;;;25.23;;
80653;SDS011;70020;45.524;10.240;2023-12-28T06:52:22;40.70;;;25.25;;
80653;SDS011;70020;45.524;10.240;2023-12-28T06:54:50;42.45;;;27.85;;
80653;SDS011;70020;45.524;10.240;2023-12-28T06:57:16;39.72;;;25.50;;
80653;SDS011;70020;45.524;10.240;2023-12-28T06:59:43;39.83;;;25.80;;
80653;SDS011;70020;45.524;10.240;2023-12-28T07:02:08;37.23;;;24.60;;
80653;SDS011;70020;45.524;10.240;2023-12-28T07:04:34;37.03;;;25.25;;
80653;SDS011;70020;45.524;10.240;2023-12-28T07:07:01;36.25;;;26.13;;
80653;SDS011;70020;45.524;10.240;2023-12-28T07:09:27;35.10;;;23.60;;
80653;SDS011;70020;45.524;10.240;2023-12-28T07:11:52;38.50;;;25.07;;
80653;SDS011;70020;45.524;10.240;2023-12-28T07:14:18;35.80;;;24.95;;
80653;SDS011;70020;45.524;10.240;2023-12-28T07:16:44;38.22;;;25.90;;
80653;SDS011;70020;45.524;10.240;2023-12-28T07:21:36;39.00;;;23.92;;
80653;SDS011;70020;45.524;10.240;2023-12-28T07:24:02;37.20;;;25.85;;
80653;SDS011;70020;45.524;10.240;2023-12-28T07:26:29;40.33;;;25.63;;
80653;SDS011;70020;45.524;10.240;2023-12-28T07:28:55;33.70;;;24.08;;
80653;SDS011;70020;45.524;10.240;2023-12-28T07:31:25;41.38;;;25.98;;
80653;SDS011;70020;45.524;10.240;2023-12-28T07:33:54;42.28;;;25.83;;
80653;SDS011;70020;45.524;10.240;2023-12-28T07:36:20;39.08;;;25.75;;
80653;SDS011;70020;45.524;10.240;2023-12-28T07:38:46;39.83;;;25.13;;
80653;SDS011;70020;45.524;10.240;2023-12-28T07:41:12;35.30;;;24.60;;
80653;SDS011;70020;45.524;10.240;2023-12-28T07:43:38;40.78;;;26.58;;
80653;SDS011;70020;45.524;10.240;2023-12-28T07:46:04;39.13;;;25.10;;
80653;SDS011;70020;45.524;10.240;2023-12-28T07:48:30;37.38;;;24.80;;
80653;SDS011;70020;45.524;10.240;2023-12-28T07:50:56;41.80;;;25.07;;
80653;SDS011;70020;45.524;10.240;2023-12-28T07:53:22;37.58;;;24.58;;
80653;SDS011;70020;45.524;10.240;2023-12-28T07:55:48;37.17;;;24.37;;
80653;SDS011;70020;45.524;10.240;2023-12-28T07:58:14;40.72;;;25.85;;
80653;SDS011;70020;45.524;10.240;2023-12-28T08:00:40;43.23;;;28.13;;
80653;SDS011;70020;45.524;10.240;2023-12-28T08:03:05;42.80;;;28.60;;
80653;SDS011;70020;45.524;10.240;2023-12-28T08:05:32;45.53;;;28.40;;
80653;SDS011;70020;45.524;10.240;2023-12-28T08:07:57;44.00;;;27.88;;
80653;SDS011;70020;45.524;10.240;2023-12-28T08:10:23;41.67;;;28.33;;
80653;SDS011;70020;45.524;10.240;2023-12-28T08:12:49;44.63;;;28.73;;
80653;SDS011;70020;45.524;10.240;2023-12-28T08:15:15;37.20;;;26.40;;
80653;SDS011;70020;45.524;10.240;2023-12-28T08:17:41;43.57;;;28.47;;
80653;SDS011;70020;45.524;10.240;2023-12-28T08:20:07;44.25;;;27.75;;
80653;SDS011;70020;45.524;10.240;2023-12-28T08:22:34;45.05;;;29.58;;
80653;SDS011;70020;45.524;10.240;2023-12-28T08:25:00;46.05;;;30.17;;
80653;SDS011;70020;45.524;10.240;2023-12-28T08:29:52;53.55;;;32.25;;
80653;SDS011;70020;45.524;10.240;2023-12-28T08:32:18;49.75;;;30.83;;
80653;SDS011;70020;45.524;10.240;2023-12-28T08:34:44;46.53;;;31.98;;
80653;SDS011;70020;45.524;10.240;2023-12-28T08:37:12;47.70;;;30.25;;
80653;SDS011;70020;45.524;10.240;2023-12-28T08:39:39;44.17;;;28.88;;
80653;SDS011;70020;45.524;10.240;2023-12-28T08:42:05;47.72;;;30.08;;
80653;SDS011;70020;45.524;10.240;2023-12-28T08:44:31;50.00;;;30.45;;
80653;SDS011;70020;45.524;10.240;2023-12-28T08:49:23;51.17;;;30.70;;
80653;SDS011;70020;45.524;10.240;2023-12-28T08:51:48;44.10;;;30.00;;
80653;SDS011;70020;45.524;10.240;2023-12-28T08:54:14;45.28;;;29.73;;
80653;SDS011;70020;45.524;10.240;2023-12-28T08:56:40;42.40;;;29.38;;
80653;SDS011;70020;45.524;10.240;2023-12-28T08:59:06;43.83;;;29.63;;
80653;SDS011;70020;45.524;10.240;2023-12-28T09:01:32;47.77;;;30.53;;
80653;SDS011;70020;45.524;10.240;2023-12-28T09:03:58;43.92;;;28.52;;
80653;SDS011;70020;45.524;10.240;2023-12-28T09:06:24;43.97;;;31.50;;
80653;SDS011;70020;45.524;10.240;2023-12-28T09:08:50;45.53;;;29.08;;
80653;SDS011;70020;45.524;10.240;2023-12-28T09:11:17;42.13;;;28.98;;
80653;SDS011;70020;45.524;10.240;2023-12-28T09:13:43;49.22;;;29.77;;
80653;SDS011;70020;45.524;10.240;2023-12-28T09:16:10;41.85;;;28.65;;
80653;SDS011;70020;45.524;10.240;2023-12-28T09:18:37;44.60;;;28.88;;
80653;SDS011;70020;45.524;10.240;2023-12-28T09:21:03;42.80;;;29.67;;
80653;SDS011;70020;45.524;10.240;2023-12-28T09:23:30;48.80;;;29.15;;
80653;SDS011;70020;45.524;10.240;2023-12-28T09:25:57;46.33;;;29.70;;
80653;SDS011;70020;45.524;10.240;2023-12-28T09:28:28;46.63;;;30.98;;
80653;SDS011;70020;45.524;10.240;2023-12-28T09:30:54;46.45;;;30.50;;
80653;SDS011;70020;45.524;10.240;2023-12-28T09:33:20;45.10;;;31.67;;
80653;SDS011;70020;45.524;10.240;2023-12-28T09:35:46;44.70;;;29.73;;
80653;SDS011;70020;45.524;10.240;2023-12-28T09:38:13;45.28;;;30.38;;
80653;SDS011;70020;45.524;10.240;2023-12-28T09:40:42;41.42;;;29.55;;
80653;SDS011;70020;45.524;10.240;2023-12-28T09:43:24;44.28;;;29.63;;
80653;SDS011;70020;45.524;10.240;2023-12-28T09:45:52;46.90;;;30.63;;
80653;SDS011;70020;45.524;10.240;2023-12-28T09:48:19;47.17;;;30.05;;
80653;SDS011;70020;45.524;10.240;2023-12-28T09:53:16;40.33;;;27.52;;
80653;SDS011;70020;45.524;10.240;2023-12-28T09:55:42;39.53;;;27.58;;
80653;SDS011;70020;45.524;10.240;2023-12-28T09:58:09;43.35;;;28.27;;
80653;SDS011;70020;45.524;10.240;2023-12-28T10:00:37;40.90;;;27.50;;
80653;SDS011;70020;45.524;10.240;2023-12-28T10:03:03;44.83;;;28.50;;
80653;SDS011;70020;45.524;10.240;2023-12-28T10:05:29;44.27;;;28.27;;
80653;SDS011;70020;45.524;10.240;2023-12-28T10:07:55;40.07;;;28.57;;
80653;SDS011;70020;45.524;10.240;2023-12-28T10:12:47;38.13;;;27.35;;
80653;SDS011;70020;45.524;10.240;2023-12-28T10:15:13;42.25;;;28.83;;
80653;SDS011;70020;45.524;10.240;2023-12-28T10:17:39;49.63;;;30.07;;
80653;SDS011;70020;45.524;10.240;2023-12-28T10:20:06;41.88;;;28.38;;
80653;SDS011;70020;45.524;10.240;2023-12-28T10:22:34;39.92;;;27.23;;
80653;SDS011;70020;45.524;10.240;2023-12-28T10:25:01;40.90;;;27.48;;
80653;SDS011;70020;45.524;10.240;2023-12-28T10:27:28;39.55;;;26.90;;
80653;SDS011;70020;45.524;10.240;2023-12-28T10:29:57;37.65;;;25.75;;
80653;SDS011;70020;45.524;10.240;2023-12-28T10:32:23;37.00;;;24.77;;
80653;SDS011;70020;45.524;10.240;2023-12-28T10:34:52;38.63;;;24.15;;
80653;SDS011;70020;45.524;10.240;2023-12-28T10:37:21;31.90;;;22.67;;
80653;SDS011;70020;45.524;10.240;2023-12-28T10:39:47;34.10;;;20.85;;
80653;SDS011;70020;45.524;10.240;2023-12-28T10:42:29;32.90;;;22.35;;
80653;SDS011;70020;45.524;10.240;2023-12-28T10:45:03;33.17;;;21.33;;
80653;SDS011;70020;45.524;10.240;2023-12-28T10:47:32;30.60;;;19.45;;
80653;SDS011;70020;45.524;10.240;2023-12-28T10:50:05;29.05;;;19.05;;
80653;SDS011;70020;45.524;10.240;2023-12-28T10:52:32;27.40;;;19.00;;
80653;SDS011;70020;45.524;10.240;2023-12-28T10:58:19;28.27;;;17.60;;
80653;SDS011;70020;45.524;10.240;2023-12-28T11:00:36;28.50;;;18.83;;
80653;SDS011;70020;45.524;10.240;2023-12-28T11:03:16;31.60;;;19.30;;
80653;SDS011;70020;45.524;10.240;2023-12-28T11:05:47;27.30;;;18.58;;
80653;SDS011;70020;45.524;10.240;2023-12-28T11:08:14;27.75;;;18.95;;
80653;SDS011;70020;45.524;10.240;2023-12-28T11:10:41;29.67;;;18.83;;
80653;SDS011;70020;45.524;10.240;2023-12-28T11:13:08;33.92;;;19.42;;
80653;SDS011;70020;45.524;10.240;2023-12-28T11:15:35;33.35;;;21.27;;
80653;SDS011;70020;45.524;10.240;2023-12-28T11:18:03;34.72;;;22.60;;
80653;SDS011;70020;45.524;10.240;2023-12-28T11:20:30;34.80;;;21.80;;
80653;SDS011;70020;45.524;10.240;2023-12-28T11:22:56;32.88;;;21.75;;
80653;SDS011;70020;45.524;10.240;2023-12-28T11:25:23;40.67;;;22.52;;
80653;SDS011;70020;45.524;10.240;2023-12-28T11:27:49;31.42;;;21.70;;
80653;SDS011;70020;45.524;10.240;2023-12-28T11:30:15;33.30;;;23.08;;
80653;SDS011;70020;45.524;10.240;2023-12-28T11:32:41;33.97;;;22.65;;
80653;SDS011;70020;45.524;10.240;2023-12-28T11:35:11;34.33;;;22.98;;
80653;SDS011;70020;45.524;10.240;2023-12-28T11:37:40;31.65;;;21.02;;
80653;SDS011;70020;45.524;10.240;2023-12-28T11:40:13;34.03;;;22.10;;
80653;SDS011;70020;45.524;10.240;2023-12-28T11:42:49;34.90;;;23.05;;
80653;SDS011;70020;45.524;10.240;2023-12-28T11:45:16;33.47;;;21.98;;
80653;SDS011;70020;45.524;10.240;2023-12-28T11:47:42;41.08;;;23.67;;
80653;SDS011;70020;45.524;10.240;2023-12-28T11:50:08;32.67;;;22.30;;
80653;SDS011;70020;45.524;10.240;2023-12-28T11:52:36;35.08;;;22.67;;
80653;SDS011;70020;45.524;10.240;2023-12-28T11:55:02;34.28;;;22.50;;
80653;SDS011;70020;45.524;10.240;2023-12-28T11:57:30;32.55;;;23.00;;
80653;SDS011;70020;45.524;10.240;2023-12-28T12:02:23;32.58;;;23.33;;
80653;SDS011;70020;45.524;10.240;2023-12-28T12:07:15;37.45;;;23.33;;
80653;SDS011;70020;45.524;10.240;2023-12-28T12:09:41;35.58;;;23.17;;
80653;SDS011;70020;45.524;10.240;2023-12-28T12:12:08;37.38;;;23.27;;
80653;SDS011;70020;45.524;10.240;2023-12-28T12:14:34;38.78;;;24.38;;
80653;SDS011;70020;45.524;10.240;2023-12-28T12:17:03;37.60;;;24.33;;
80653;SDS011;70020;45.524;10.240;2023-12-28T12:19:29;41.78;;;24.67;;
80653;SDS011;70020;45.524;10.240;2023-12-28T12:21:55;38.77;;;25.23;;
80653;SDS011;70020;45.524;10.240;2023-12-28T12:24:25;35.67;;;25.75;;
80653;SDS011;70020;45.524;10.240;2023-12-28T12:26:52;38.28;;;25.85;;
80653;SDS011;70020;45.524;10.240;2023-12-28T12:29:18;38.55;;;26.10;;
80653;SDS011;70020;45.524;10.240;2023-12-28T12:31:44;38.13;;;25.42;;
80653;SDS011;70020;45.524;10.240;2023-12-28T12:34:16;34.17;;;24.17;;
80653;SDS011;70020;45.524;10.240;2023-12-28T12:36:42;36.58;;;25.65;;
80653;SDS011;70020;45.524;10.240;2023-12-28T12:39:11;38.45;;;25.83;;
80653;SDS011;70020;45.524;10.240;2023-12-28T12:41:37;42.20;;;27.00;;
80653;SDS011;70020;45.524;10.240;2023-12-28T12:44:07;36.25;;;25.38;;
80653;SDS011;70020;45.524;10.240;2023-12-28T12:46:35;35.55;;;25.92;;
80653;SDS011;70020;45.524;10.240;2023-12-28T12:49:01;39.40;;;25.63;;
80653;SDS011;70020;45.524;10.240;2023-12-28T12:54:00;40.58;;;26.52;;
80653;SDS011;70020;45.524;10.240;2023-12-28T12:56:28;39.00;;;26.65;;
80653;SDS011;70020;45.524;10.240;2023-12-28T12:58:54;41.88;;;26.48;;
80653;SDS011;70020;45.524;10.240;2023-12-28T13:01:21;39.15;;;25.92;;
80653;SDS011;70020;45.524;10.240;2023-12-28T13:03:47;40.60;;;24.55;;
80653;SDS011;70020;45.524;10.240;2023-12-28T13:06:13;40.38;;;24.58;;
80653;SDS011;70020;45.524;10.240;2023-12-28T13:08:39;37.97;;;22.73;;
80653;SDS011;70020;45.524;10.240;2023-12-28T13:11:05;35.07;;;23.43;;
80653;SDS011;70020;45.524;10.240;2023-12-28T13:13:33;36.70;;;23.42;;
80653;SDS011;70020;45.524;10.240;2023-12-28T13:16:01;35.33;;;23.42;;
80653;SDS011;70020;45.524;10.240;2023-12-28T13:18:27;37.13;;;23.20;;
80653;SDS011;70020;45.524;10.240;2023-12-28T13:20:54;32.20;;;21.02;;
80653;SDS011;70020;45.524;10.240;2023-12-28T13:25:45;31.77;;;19.77;;
80653;SDS011;70020;45.524;10.240;2023-12-28T13:28:12;30.63;;;20.20;;
80653;SDS011;70020;45.524;10.240;2023-12-28T13:30:38;30.48;;;18.48;;
80653;SDS011;70020;45.524;10.240;2023-12-28T13:33:04;26.57;;;18.90;;
80653;SDS011;70020;45.524;10.240;2023-12-28T13:35:30;31.65;;;18.55;;
80653;SDS011;70020;45.524;10.240;2023-12-28T13:37:59;28.65;;;19.50;;
80653;SDS011;70020;45.524;10.240;2023-12-28T13:40:26;32.30;;;19.20;;
80653;SDS011;70020;45.524;10.240;2023-12-28T13:42:52;31.17;;;19.93;;
80653;SDS011;70020;45.524;10.240;2023-12-28T13:45:18;26.42;;;19.63;;
80653;SDS011;70020;45.524;10.240;2023-12-28T13:47:44;29.10;;;20.55;;
80653;SDS011;70020;45.524;10.240;2023-12-28T13:50:10;33.10;;;18.88;;
80653;SDS011;70020;45.524;10.240;2023-12-28T13:52:35;28.65;;;19.80;;
80653;SDS011;70020;45.524;10.240;2023-12-28T13:55:02;30.52;;;20.08;;
80653;SDS011;70020;45.524;10.240;2023-12-28T13:57:28;32.90;;;20.02;;
80653;SDS011;70020;45.524;10.240;2023-12-28T13:59:53;34.83;;;20.98;;
80653;SDS011;70020;45.524;10.240;2023-12-28T14:02:22;31.50;;;19.38;;
80653;SDS011;70020;45.524;10.240;2023-12-28T14:04:48;33.15;;;20.25;;
80653;SDS011;70020;45.524;10.240;2023-12-28T14:07:14;30.95;;;20.45;;
80653;SDS011;70020;45.524;10.240;2023-12-28T14:09:39;32.80;;;21.50;;
80653;SDS011;70020;45.524;10.240;2023-12-28T14:12:06;35.88;;;20.73;;
80653;SDS011;70020;45.524;10.240;2023-12-28T14:14:33;30.27;;;20.40;;
80653;SDS011;70020;45.524;10.240;2023-12-28T14:16:59;36.83;;;21.53;;
80653;SDS011;70020;45.524;10.240;2023-12-28T14:19:25;33.27;;;21.07;;
80653;SDS011;70020;45.524;10.240;2023-12-28T14:24:21;31.25;;;20.13;;
80653;SDS011;70020;45.524;10.240;2023-12-28T14:26:48;30.13;;;20.15;;
80653;SDS011;70020;45.524;10.240;2023-12-28T14:29:18;27.83;;;18.63;;
80653;SDS011;70020;45.524;10.240;2023-12-28T14:31:45;29.40;;;19.10;;
80653;SDS011;70020;45.524;10.240;2023-12-28T14:34:12;25.27;;;17.77;;
80653;SDS011;70020;45.524;10.240;2023-12-28T14:39:05;26.20;;;16.98;;
80653;SDS011;70020;45.524;10.240;2023-12-28T14:41:35;29.85;;;17.95;;
80653;SDS011;70020;45.524;10.240;2023-12-28T14:44:01;29.98;;;17.73;;
80653;SDS011;70020;45.524;10.240;2023-12-28T14:46:27;30.27;;;17.13;;
80653;SDS011;70020;45.524;10.240;2023-12-28T14:48:53;27.10;;;16.25;;
80653;SDS011;70020;45.524;10.240;2023-12-28T14:51:18;25.53;;;17.17;;
80653;SDS011;70020;45.524;10.240;2023-12-28T14:53:44;28.75;;;17.08;;